createdAt,value
2023-04-29T00:05:39.389Z,13.88
2023-04-29T00:06:40.209Z,13.97
2023-04-29T00:07:40.243Z,13.70
2023-04-29T00:08:40.209Z,13.92
2023-04-29T00:09:40.222Z,13.85
2023-04-29T00:10:40.209Z,13.95
2023-04-29T00:11:40.205Z,14.05
2023-04-29T00:12:40.174Z,14.11
2023-04-29T00:13:40.179Z,14.19
2023-04-29T00:14:40.165Z,14.23
2023-04-29T00:15:40.155Z,14.30
2023-04-29T00:16:40.185Z,14.33
2023-04-29T00:17:40.171Z,14.37
2023-04-29T00:18:40.098Z,14.41
2023-04-29T00:19:40.102Z,14.49
2023-04-29T00:20:40.092Z,14.49
2023-04-29T00:21:40.109Z,14.55
2023-04-29T00:22:40.076Z,14.57
2023-04-29T00:23:40.080Z,14.60
2023-04-29T00:24:40.091Z,14.57
2023-04-29T00:25:40.093Z,14.60
2023-04-29T00:26:40.068Z,14.64
2023-04-29T00:27:40.060Z,14.64
2023-04-29T00:28:40.052Z,14.67
2023-04-29T00:29:40.043Z,14.70
2023-04-29T00:30:40.065Z,14.73
2023-04-29T00:31:40.054Z,14.75
2023-04-29T00:32:39.980Z,14.78
2023-04-29T00:33:39.961Z,14.80
2023-04-29T00:34:39.921Z,14.81
2023-04-29T00:35:39.889Z,14.83
2023-04-29T00:36:39.884Z,14.84
2023-04-29T00:37:39.923Z,14.88
2023-04-29T00:38:39.951Z,14.87
2023-04-29T00:39:39.996Z,14.90
2023-04-29T00:40:40.014Z,14.88
2023-04-29T00:41:40.009Z,14.88
2023-04-29T00:42:40.039Z,14.91
2023-04-29T00:43:40.093Z,14.94
2023-04-29T00:44:40.106Z,14.84
2023-04-29T00:45:40.102Z,14.84
2023-04-29T00:46:40.352Z,14.88
2023-04-29T00:47:40.155Z,14.92
2023-04-29T00:48:40.172Z,14.88
2023-04-29T00:49:40.191Z,14.91
2023-04-29T00:50:40.222Z,14.92
2023-04-29T00:51:40.224Z,14.96
2023-04-29T00:52:40.217Z,14.95
2023-04-29T00:53:40.301Z,14.95
2023-04-29T00:54:40.215Z,14.83
2023-04-29T00:55:40.179Z,14.81
2023-04-29T00:56:40.152Z,14.88
2023-04-29T00:57:40.158Z,14.73
2023-04-29T00:58:40.188Z,14.66
2023-04-29T00:59:40.156Z,14.60
2023-04-29T01:00:40.137Z,14.68
2023-04-29T01:01:40.224Z,14.70
2023-04-29T01:02:40.199Z,14.74
2023-04-29T01:03:40.351Z,14.74
2023-04-29T01:04:40.429Z,14.75
2023-04-29T01:05:40.128Z,14.68
2023-04-29T01:06:40.149Z,14.73
2023-04-29T01:07:40.089Z,14.56
2023-04-29T01:08:40.058Z,14.66
2023-04-29T01:09:40.238Z,14.62
2023-04-29T01:10:40.043Z,14.66
2023-04-29T01:11:40.004Z,14.59
2023-04-29T01:12:39.994Z,14.63
2023-04-29T01:13:39.990Z,14.67
2023-04-29T01:14:39.976Z,14.60
2023-04-29T01:15:40.023Z,14.68
2023-04-29T01:16:40.022Z,14.68
2023-04-29T01:17:39.986Z,14.66
2023-04-29T01:18:39.933Z,14.57
2023-04-29T01:19:39.921Z,14.67
2023-04-29T01:20:39.908Z,14.66
2023-04-29T01:21:39.901Z,14.73
2023-04-29T01:22:39.916Z,14.75
2023-04-29T01:23:39.919Z,14.74
2023-04-29T01:24:39.924Z,14.56
2023-04-29T01:25:39.922Z,14.67
2023-04-29T01:26:39.848Z,14.56
2023-04-29T01:27:39.863Z,14.49
2023-04-29T01:28:39.793Z,14.60
2023-04-29T01:29:39.873Z,14.66
2023-04-29T01:30:39.769Z,14.70
2023-04-29T01:31:39.799Z,14.73
2023-04-29T01:32:40.798Z,14.70
2023-04-29T01:33:39.740Z,14.73
2023-04-29T01:34:39.710Z,14.74
2023-04-29T01:35:39.732Z,14.68
2023-04-29T01:36:39.712Z,14.74
2023-04-29T01:37:39.685Z,14.75
2023-04-29T01:38:39.682Z,14.81
2023-04-29T01:39:39.638Z,14.80
2023-04-29T01:40:39.620Z,14.81
2023-04-29T01:41:39.669Z,14.87
2023-04-29T01:42:39.589Z,14.80
2023-04-29T01:43:39.599Z,14.78
2023-04-29T01:44:39.571Z,14.83
2023-04-29T01:45:39.569Z,14.84
2023-04-29T01:46:39.633Z,14.84
2023-04-29T01:47:39.728Z,14.85
2023-04-29T01:48:39.616Z,14.88
2023-04-29T01:49:39.591Z,14.90
2023-04-29T01:50:39.586Z,14.92
2023-04-29T01:51:39.581Z,14.92
2023-04-29T01:52:39.583Z,14.92
2023-04-29T01:53:39.573Z,14.90
2023-04-29T01:54:39.554Z,14.94
2023-04-29T01:55:39.622Z,14.92
2023-04-29T01:56:39.655Z,14.94
2023-04-29T01:57:39.654Z,14.92
2023-04-29T01:58:39.641Z,14.95
2023-04-29T01:59:39.662Z,14.88
2023-04-29T02:00:39.749Z,14.94
2023-04-29T02:01:39.710Z,14.95
2023-04-29T02:02:39.861Z,14.92
2023-04-29T02:03:39.699Z,14.95
2023-04-29T02:04:39.623Z,14.94
2023-04-29T02:05:39.595Z,14.87
2023-04-29T02:06:39.588Z,14.92
2023-04-29T02:07:39.591Z,14.80
2023-04-29T02:08:39.568Z,14.59
2023-04-29T02:09:39.540Z,14.74
2023-04-29T02:10:39.547Z,14.07
2023-04-29T02:11:39.544Z,14.41
2023-04-29T02:12:39.546Z,14.50
2023-04-29T02:13:39.559Z,14.13
2023-04-29T02:14:39.596Z,14.16
2023-04-29T02:15:39.611Z,14.18
2023-04-29T02:16:39.689Z,13.92
2023-04-29T02:17:39.740Z,13.91
2023-04-29T02:18:39.710Z,14.15
2023-04-29T02:19:39.742Z,14.23
2023-04-29T02:20:39.800Z,14.07
2023-04-29T02:21:39.837Z,14.26
2023-04-29T02:22:39.882Z,14.35
2023-04-29T02:23:39.978Z,14.39
2023-04-29T02:24:39.961Z,14.43
2023-04-29T02:25:39.995Z,14.50
2023-04-29T02:26:40.016Z,14.57
2023-04-29T02:27:40.075Z,14.63
2023-04-29T02:28:40.060Z,14.67
2023-04-29T02:29:40.096Z,14.74
2023-04-29T02:30:40.103Z,14.75
2023-04-29T02:31:40.159Z,14.81
2023-04-29T02:32:40.166Z,14.87
2023-04-29T02:33:40.145Z,14.87
2023-04-29T02:34:40.107Z,14.80
2023-04-29T02:35:40.101Z,14.85
2023-04-29T02:36:40.116Z,14.88
2023-04-29T02:37:40.103Z,14.88
2023-04-29T02:38:40.066Z,14.88
2023-04-29T02:39:40.114Z,14.85
2023-04-29T02:40:40.113Z,14.91
2023-04-29T02:41:40.141Z,14.85
2023-04-29T02:42:40.188Z,14.91
2023-04-29T02:43:40.142Z,14.95
2023-04-29T02:44:40.138Z,14.62
2023-04-29T02:45:40.182Z,14.78
2023-04-29T02:46:40.190Z,14.85
2023-04-29T02:47:40.292Z,14.88
2023-04-29T02:48:40.270Z,14.88
2023-04-29T02:49:40.342Z,14.75
2023-04-29T02:50:40.368Z,14.81
2023-04-29T02:51:40.383Z,14.70
2023-04-29T02:52:40.446Z,14.60
2023-04-29T02:53:40.443Z,14.55
2023-04-29T02:54:40.424Z,14.56
2023-04-29T02:55:40.415Z,14.62
2023-04-29T02:56:40.418Z,14.68
2023-04-29T02:57:40.407Z,14.68
2023-04-29T02:58:40.396Z,14.68
2023-04-29T02:59:40.386Z,14.44
2023-04-29T03:00:40.348Z,14.40
2023-04-29T03:01:40.604Z,14.55
2023-04-29T03:02:40.601Z,14.50
2023-04-29T03:03:40.563Z,14.47
2023-04-29T03:04:40.344Z,14.51
2023-04-29T03:05:40.345Z,14.50
2023-04-29T03:06:40.380Z,14.51
2023-04-29T03:07:40.361Z,14.59
2023-04-29T03:08:40.294Z,14.53
2023-04-29T03:09:40.314Z,14.57
2023-04-29T03:10:41.458Z,14.67
2023-04-29T03:11:40.338Z,14.57
2023-04-29T03:12:40.388Z,14.60
2023-04-29T03:13:40.388Z,14.64
2023-04-29T03:14:40.462Z,14.57
2023-04-29T03:15:40.505Z,14.62
2023-04-29T03:16:40.531Z,14.67
2023-04-29T03:17:40.557Z,14.66
2023-04-29T03:18:40.459Z,14.73
2023-04-29T03:19:40.446Z,14.75
2023-04-29T03:20:40.447Z,14.80
2023-04-29T03:21:40.443Z,14.73
2023-04-29T03:22:40.469Z,14.77
2023-04-29T03:23:40.470Z,14.83
2023-04-29T03:24:40.488Z,14.84
2023-04-29T03:25:40.521Z,14.87
2023-04-29T03:26:40.496Z,14.87
2023-04-29T03:27:40.529Z,14.90
2023-04-29T03:28:40.529Z,14.90
2023-04-29T03:29:40.594Z,14.91
2023-04-29T03:30:40.532Z,14.92
2023-04-29T03:31:40.629Z,14.91
2023-04-29T03:32:40.637Z,14.95
2023-04-29T03:33:40.648Z,14.88
2023-04-29T03:34:40.638Z,14.88
2023-04-29T03:35:40.701Z,14.73
2023-04-29T03:36:40.723Z,14.81
2023-04-29T03:37:40.762Z,14.84
2023-04-29T03:38:40.800Z,14.87
2023-04-29T03:39:40.853Z,14.77
2023-04-29T03:40:40.858Z,14.75
2023-04-29T03:41:40.853Z,14.80
2023-04-29T03:42:40.841Z,14.66
2023-04-29T03:43:40.854Z,14.66
2023-04-29T03:44:40.882Z,14.55
2023-04-29T03:45:40.882Z,14.66
2023-04-29T03:46:40.930Z,14.70
2023-04-29T03:47:40.888Z,14.59
2023-04-29T03:48:40.858Z,14.70
2023-04-29T03:49:40.890Z,14.56
2023-04-29T03:50:40.845Z,14.30
2023-04-29T03:51:40.822Z,14.13
2023-04-29T03:52:40.839Z,14.23
2023-04-29T03:53:40.832Z,14.35
2023-04-29T03:54:40.827Z,14.35
2023-04-29T03:55:40.844Z,14.30
2023-04-29T03:56:40.838Z,14.39
2023-04-29T03:57:42.443Z,14.44
2023-04-29T03:58:40.811Z,14.43
2023-04-29T03:59:40.888Z,14.32
2023-04-29T04:00:40.794Z,14.26
2023-04-29T04:01:40.812Z,14.37
2023-04-29T04:02:41.083Z,14.41
2023-04-29T04:03:40.938Z,14.46
2023-04-29T04:04:41.018Z,14.40
2023-04-29T04:05:40.721Z,14.44
2023-04-29T04:06:40.679Z,14.49
2023-04-29T04:07:40.648Z,14.07
2023-04-29T04:08:40.635Z,14.22
2023-04-29T04:09:40.603Z,14.32
2023-04-29T04:10:40.593Z,14.30
2023-04-29T04:11:40.598Z,14.37
2023-04-29T04:12:42.167Z,14.46
2023-04-29T04:13:40.531Z,14.44
2023-04-29T04:14:40.513Z,14.51
2023-04-29T04:15:40.494Z,14.30
2023-04-29T04:16:40.558Z,14.43
2023-04-29T04:17:40.513Z,14.46
2023-04-29T04:18:40.430Z,14.51
2023-04-29T04:19:40.412Z,14.60
2023-04-29T04:20:40.397Z,14.62
2023-04-29T04:21:40.427Z,14.64
2023-04-29T04:22:40.383Z,14.68
2023-04-29T04:23:40.435Z,14.73
2023-04-29T04:24:40.356Z,14.75
2023-04-29T04:25:40.331Z,14.75
2023-04-29T04:26:40.302Z,14.78
2023-04-29T04:27:40.330Z,14.80
2023-04-29T04:28:40.271Z,14.59
2023-04-29T04:29:40.243Z,14.71
2023-04-29T04:30:40.257Z,14.73
2023-04-29T04:31:40.273Z,14.74
2023-04-29T04:32:40.233Z,14.71
2023-04-29T04:33:40.131Z,14.74
2023-04-29T04:34:40.109Z,14.78
2023-04-29T04:35:40.094Z,14.75
2023-04-29T04:36:40.082Z,14.40
2023-04-29T04:37:40.086Z,14.50
2023-04-29T04:38:40.074Z,14.64
2023-04-29T04:39:40.130Z,14.56
2023-04-29T04:40:40.144Z,14.36
2023-04-29T04:41:40.177Z,14.44
2023-04-29T04:42:40.230Z,14.56
2023-04-29T04:43:40.130Z,14.33
2023-04-29T04:44:40.145Z,14.20
2023-04-29T04:45:40.130Z,14.18
2023-04-29T04:46:40.071Z,14.40
2023-04-29T04:47:40.100Z,14.33
2023-04-29T04:48:40.089Z,14.30
2023-04-29T04:49:40.099Z,14.37
2023-04-29T04:50:40.150Z,14.46
2023-04-29T04:51:40.164Z,14.53
2023-04-29T04:52:40.119Z,14.57
2023-04-29T04:53:40.144Z,14.67
2023-04-29T04:54:40.105Z,14.70
2023-04-29T04:55:40.119Z,14.75
2023-04-29T04:56:40.128Z,14.80
2023-04-29T04:57:40.082Z,14.84
2023-04-29T04:58:40.060Z,14.80
2023-04-29T04:59:40.083Z,14.85
2023-04-29T05:00:40.104Z,14.92
2023-04-29T05:01:40.214Z,14.95
2023-04-29T05:02:40.299Z,14.99
2023-04-29T05:03:40.519Z,14.84
2023-04-29T05:04:40.284Z,14.59
2023-04-29T05:05:40.266Z,14.81
2023-04-29T05:06:40.308Z,14.90
2023-04-29T05:07:40.289Z,14.84
2023-04-29T05:08:40.323Z,14.87
2023-04-29T05:09:40.327Z,14.95
2023-04-29T05:10:40.327Z,14.56
2023-04-29T05:11:40.347Z,14.85
2023-04-29T05:12:40.367Z,14.60
2023-04-29T05:13:40.387Z,14.80
2023-04-29T05:14:40.436Z,14.91
2023-04-29T05:15:40.488Z,14.94
2023-04-29T05:16:40.580Z,14.99
2023-04-29T05:17:40.534Z,14.99
2023-04-29T05:18:40.525Z,14.88
2023-04-29T05:19:40.536Z,14.85
2023-04-29T05:20:40.558Z,14.88
2023-04-29T05:21:40.585Z,14.96
2023-04-29T05:22:40.638Z,15.05
2023-04-29T05:23:40.629Z,15.12
2023-04-29T05:24:40.730Z,15.11
2023-04-29T05:25:40.707Z,15.22
2023-04-29T05:26:40.714Z,15.15
2023-04-29T05:27:40.740Z,15.26
2023-04-29T05:28:40.735Z,15.30
2023-04-29T05:29:40.769Z,15.32
2023-04-29T05:30:40.855Z,15.19
2023-04-29T05:31:40.778Z,15.21
2023-04-29T05:32:40.833Z,15.23
2023-04-29T05:33:40.804Z,15.09
2023-04-29T05:34:40.824Z,14.84
2023-04-29T05:35:40.873Z,14.94
2023-04-29T05:36:40.864Z,15.05
2023-04-29T05:37:40.875Z,15.17
2023-04-29T05:38:40.887Z,15.21
2023-04-29T05:39:40.913Z,15.29
2023-04-29T05:40:40.942Z,15.29
2023-04-29T05:41:40.961Z,15.21
2023-04-29T05:42:41.035Z,15.32
2023-04-29T05:43:40.979Z,15.35
2023-04-29T05:44:41.023Z,15.37
2023-04-29T05:45:41.055Z,15.36
2023-04-29T05:46:41.180Z,15.33
2023-04-29T05:47:41.162Z,15.33
2023-04-29T05:48:41.091Z,15.42
2023-04-29T05:49:41.130Z,15.49
2023-04-29T05:50:41.144Z,15.40
2023-04-29T05:51:41.224Z,15.32
2023-04-29T05:52:41.198Z,15.36
2023-04-29T05:53:41.184Z,15.42
2023-04-29T05:54:41.185Z,15.47
2023-04-29T05:55:41.191Z,15.43
2023-04-29T05:56:41.202Z,15.58
2023-04-29T05:57:41.237Z,15.61
2023-04-29T05:58:41.231Z,15.67
2023-04-29T05:59:41.238Z,15.64
2023-04-29T06:00:41.247Z,15.64
2023-04-29T06:01:41.226Z,15.58
2023-04-29T06:02:47.558Z,15.70
2023-04-29T06:03:41.312Z,15.70
2023-04-29T06:04:41.634Z,15.71
2023-04-29T06:05:41.608Z,15.61
2023-04-29T06:06:41.112Z,15.53
2023-04-29T06:07:41.084Z,15.70
2023-04-29T06:08:41.024Z,15.49
2023-04-29T06:09:40.939Z,15.73
2023-04-29T06:10:40.911Z,15.74
2023-04-29T06:11:40.875Z,15.80
2023-04-29T06:12:40.834Z,15.80
2023-04-29T06:13:40.830Z,15.84
2023-04-29T06:14:40.738Z,15.97
2023-04-29T06:15:40.697Z,15.94
2023-04-29T06:16:40.868Z,16.18
2023-04-29T06:17:40.727Z,16.26
2023-04-29T06:18:40.626Z,16.42
2023-04-29T06:19:40.608Z,16.46
2023-04-29T06:20:40.613Z,16.60
2023-04-29T06:21:40.618Z,16.50
2023-04-29T06:22:40.626Z,16.60
2023-04-29T06:23:40.653Z,16.59
2023-04-29T06:24:40.610Z,16.68
2023-04-29T06:25:40.627Z,16.80
2023-04-29T06:26:40.617Z,16.81
2023-04-29T06:27:40.610Z,16.94
2023-04-29T06:28:40.635Z,16.98
2023-04-29T06:29:40.642Z,17.04
2023-04-29T06:30:40.649Z,17.01
2023-04-29T06:31:40.674Z,16.91
2023-04-29T06:32:40.654Z,17.00
2023-04-29T06:33:40.627Z,16.88
2023-04-29T06:34:40.628Z,17.04
2023-04-29T06:35:40.598Z,17.12
2023-04-29T06:36:40.611Z,17.15
2023-04-29T06:37:40.623Z,17.22
2023-04-29T06:38:40.620Z,17.32
2023-04-29T06:39:40.591Z,17.01
2023-04-29T06:40:40.577Z,17.25
2023-04-29T06:41:40.579Z,17.22
2023-04-29T06:42:40.616Z,17.23
2023-04-29T06:43:40.588Z,17.28
2023-04-29T06:44:40.615Z,17.33
2023-04-29T06:45:40.653Z,17.26
2023-04-29T06:46:40.651Z,17.23
2023-04-29T06:47:40.687Z,17.29
2023-04-29T06:48:40.620Z,17.35
2023-04-29T06:49:40.614Z,17.33
2023-04-29T06:50:40.602Z,17.35
2023-04-29T06:51:40.608Z,17.26
2023-04-29T06:52:40.592Z,17.35
2023-04-29T06:53:40.586Z,17.33
2023-04-29T06:54:40.595Z,17.50
2023-04-29T06:55:40.593Z,17.45
2023-04-29T06:56:40.588Z,17.60
2023-04-29T06:57:40.603Z,17.63
2023-04-29T06:58:40.588Z,17.74
2023-04-29T06:59:40.600Z,17.78
2023-04-29T07:00:40.582Z,17.88
2023-04-29T07:01:43.421Z,17.99
2023-04-29T07:02:40.622Z,17.90
2023-04-29T07:03:40.545Z,17.91
2023-04-29T07:04:40.465Z,17.95
2023-04-29T07:05:40.353Z,17.97
2023-04-29T07:06:40.305Z,17.98
2023-04-29T07:07:40.215Z,17.76
2023-04-29T07:08:40.185Z,17.71
2023-04-29T07:09:40.111Z,17.87
2023-04-29T07:10:40.070Z,17.94
2023-04-29T07:11:39.999Z,17.60
2023-04-29T07:12:39.937Z,17.85
2023-04-29T07:13:39.895Z,17.84
2023-04-29T07:14:39.815Z,17.95
2023-04-29T07:15:39.752Z,18.01
2023-04-29T07:16:39.813Z,18.04
2023-04-29T07:17:39.771Z,18.01
2023-04-29T07:18:39.667Z,18.12
2023-04-29T07:19:39.661Z,18.22
2023-04-29T07:20:39.637Z,18.15
2023-04-29T07:21:39.615Z,18.18
2023-04-29T07:22:39.590Z,17.81
2023-04-29T07:23:39.521Z,18.08
2023-04-29T07:24:39.462Z,18.09
2023-04-29T07:25:39.443Z,18.28
2023-04-29T07:26:39.385Z,18.04
2023-04-29T07:27:39.312Z,18.09
2023-04-29T07:28:39.269Z,18.05
2023-04-29T07:29:39.220Z,18.26
2023-04-29T07:30:39.214Z,18.32
2023-04-29T07:31:39.111Z,18.53
2023-04-29T07:32:39.106Z,18.19
2023-04-29T07:33:38.992Z,18.08
2023-04-29T07:34:38.932Z,18.26
2023-04-29T07:35:38.911Z,18.28
2023-04-29T07:36:38.813Z,18.22
2023-04-29T07:37:38.753Z,18.24
2023-04-29T07:38:38.716Z,18.16
2023-04-29T07:39:38.717Z,18.39
2023-04-29T07:40:38.701Z,17.81
2023-04-29T07:41:38.662Z,18.15
2023-04-29T07:42:38.615Z,18.13
2023-04-29T07:43:40.268Z,18.25
2023-04-29T07:44:38.532Z,18.40
2023-04-29T07:45:38.420Z,18.63
2023-04-29T07:46:38.459Z,18.78
2023-04-29T07:47:38.279Z,18.90
2023-04-29T07:48:38.208Z,19.05
2023-04-29T07:49:38.323Z,19.05
2023-04-29T07:50:38.040Z,19.12
2023-04-29T07:51:37.961Z,19.22
2023-04-29T07:52:37.913Z,19.25
2023-04-29T07:53:37.823Z,19.23
2023-04-29T07:54:37.746Z,19.21
2023-04-29T07:55:37.684Z,19.19
2023-04-29T07:56:37.610Z,19.36
2023-04-29T07:57:37.538Z,19.35
2023-04-29T07:58:37.449Z,19.46
2023-04-29T07:59:37.370Z,19.32
2023-04-29T08:00:37.300Z,19.21
2023-04-29T08:01:36.234Z,19.26
2023-04-29T08:02:37.323Z,19.32
2023-04-29T08:03:40.433Z,19.32
2023-04-29T08:04:37.192Z,19.25
2023-04-29T08:05:37.230Z,19.48
2023-04-29T08:06:36.834Z,19.50
2023-04-29T08:07:36.773Z,19.50
2023-04-29T08:08:36.778Z,19.60
2023-04-29T08:09:36.700Z,19.30
2023-04-29T08:10:36.648Z,19.50
2023-04-29T08:11:36.576Z,19.27
2023-04-29T08:12:36.509Z,19.45
2023-04-29T08:13:36.433Z,19.49
2023-04-29T08:14:36.371Z,19.25
2023-04-29T08:15:36.297Z,19.37
2023-04-29T08:16:36.364Z,19.49
2023-04-29T08:17:36.185Z,19.45
2023-04-29T08:18:36.107Z,19.53
2023-04-29T08:19:36.056Z,19.66
2023-04-29T08:20:36.003Z,19.70
2023-04-29T08:21:35.975Z,19.69
2023-04-29T08:22:35.879Z,19.84
2023-04-29T08:23:35.961Z,19.80
2023-04-29T08:24:35.762Z,19.76
2023-04-29T08:25:35.686Z,19.92
2023-04-29T08:26:35.666Z,19.71
2023-04-29T08:27:35.582Z,19.70
2023-04-29T08:28:35.510Z,19.99
2023-04-29T08:29:35.471Z,19.90
2023-04-29T08:30:35.432Z,20.09
2023-04-29T08:31:35.477Z,20.02
2023-04-29T08:32:35.645Z,20.32
2023-04-29T08:33:35.328Z,20.49
2023-04-29T08:34:35.215Z,20.60
2023-04-29T08:35:35.166Z,20.47
2023-04-29T08:36:35.377Z,20.66
2023-04-29T08:37:35.122Z,20.73
2023-04-29T08:38:35.060Z,20.76
2023-04-29T08:39:35.014Z,20.74
2023-04-29T08:40:34.959Z,20.87
2023-04-29T08:41:34.941Z,20.88
2023-04-29T08:42:34.849Z,20.86
2023-04-29T08:43:34.756Z,20.98
2023-04-29T08:44:34.711Z,21.05
2023-04-29T08:45:34.737Z,20.70
2023-04-29T08:46:34.588Z,20.95
2023-04-29T08:47:34.649Z,20.93
2023-04-29T08:48:34.661Z,20.90
2023-04-29T08:49:34.482Z,20.94
2023-04-29T08:50:34.448Z,20.78
2023-04-29T08:51:34.406Z,20.93
2023-04-29T08:52:34.392Z,20.80
2023-04-29T08:53:34.366Z,20.97
2023-04-29T08:54:34.322Z,20.98
2023-04-29T08:55:34.259Z,20.77
2023-04-29T08:56:34.239Z,21.01
2023-04-29T08:57:34.157Z,21.07
2023-04-29T08:58:34.100Z,20.94
2023-04-29T08:59:34.034Z,21.02
2023-04-29T09:00:33.974Z,21.04
2023-04-29T09:01:34.034Z,21.18
2023-04-29T09:02:33.931Z,21.26
2023-04-29T09:03:34.114Z,21.19
2023-04-29T09:04:33.837Z,20.99
2023-04-29T09:05:33.676Z,21.09
2023-04-29T09:06:33.630Z,21.32
2023-04-29T09:07:33.519Z,21.26
2023-04-29T09:08:33.451Z,21.16
2023-04-29T09:09:33.407Z,21.36
2023-04-29T09:10:33.297Z,21.32
2023-04-29T09:11:33.252Z,21.52
2023-04-29T09:12:33.221Z,21.54
2023-04-29T09:13:33.145Z,21.61
2023-04-29T09:14:33.096Z,21.73
2023-04-29T09:15:33.007Z,21.74
2023-04-29T09:16:33.084Z,21.87
2023-04-29T09:17:32.938Z,21.97
2023-04-29T09:18:32.833Z,22.01
2023-04-29T09:19:32.745Z,22.16
2023-04-29T09:20:32.666Z,22.16
2023-04-29T09:21:32.571Z,22.27
2023-04-29T09:22:32.456Z,22.41
2023-04-29T09:23:32.395Z,22.46
2023-04-29T09:24:32.270Z,22.48
2023-04-29T09:25:32.230Z,22.66
2023-04-29T09:26:32.141Z,22.50
2023-04-29T09:27:32.064Z,22.78
2023-04-29T09:28:31.956Z,22.83
2023-04-29T09:29:31.843Z,22.98
2023-04-29T09:30:31.729Z,23.10
2023-04-29T09:31:31.619Z,23.12
2023-04-29T09:32:31.598Z,23.21
2023-04-29T09:33:31.434Z,23.31
2023-04-29T09:34:31.319Z,23.32
2023-04-29T09:35:31.201Z,23.39
2023-04-29T09:36:31.124Z,23.53
2023-04-29T09:37:31.036Z,23.60
2023-04-29T09:38:30.904Z,23.65
2023-04-29T09:39:30.830Z,23.66
2023-04-29T09:40:30.760Z,23.73
2023-04-29T09:41:30.660Z,23.83
2023-04-29T09:42:30.512Z,23.93
2023-04-29T09:43:30.394Z,24.01
2023-04-29T09:44:32.950Z,24.01
2023-04-29T09:45:30.139Z,24.12
2023-04-29T09:46:30.095Z,24.20
2023-04-29T09:47:29.922Z,24.17
2023-04-29T09:48:29.737Z,24.27
2023-04-29T09:49:29.614Z,24.25
2023-04-29T09:50:29.497Z,24.36
2023-04-29T09:51:29.381Z,24.43
2023-04-29T09:52:29.208Z,24.48
2023-04-29T09:53:29.092Z,24.51
2023-04-29T09:54:28.947Z,24.10
2023-04-29T09:55:28.811Z,23.94
2023-04-29T09:56:28.685Z,24.11
2023-04-29T09:57:28.545Z,24.29
2023-04-29T09:58:28.380Z,24.43
2023-04-29T09:59:28.242Z,24.22
2023-04-29T10:00:28.104Z,24.25
2023-04-29T10:01:27.979Z,24.27
2023-04-29T10:02:27.922Z,24.43
2023-04-29T10:03:27.741Z,24.12
2023-04-29T10:04:27.609Z,23.81
2023-04-29T10:05:27.405Z,23.69
2023-04-29T10:06:27.239Z,23.69
2023-04-29T10:07:27.584Z,23.65
2023-04-29T10:08:27.027Z,23.67
2023-04-29T10:09:26.910Z,23.81
2023-04-29T10:10:28.517Z,22.86
2023-04-29T10:11:26.626Z,23.14
2023-04-29T10:12:26.489Z,23.26
2023-04-29T10:13:26.353Z,23.28
2023-04-29T10:14:26.229Z,23.08
2023-04-29T10:15:26.063Z,23.48
2023-04-29T10:16:25.918Z,23.15
2023-04-29T10:17:25.731Z,22.69
2023-04-29T10:18:26.401Z,22.95
2023-04-29T10:19:25.438Z,23.18
2023-04-29T10:20:25.302Z,23.08
2023-04-29T10:21:25.153Z,23.08
2023-04-29T10:22:25.021Z,23.23
2023-04-29T10:23:24.872Z,23.44
2023-04-29T10:24:24.734Z,23.53
2023-04-29T10:25:24.646Z,23.67
2023-04-29T10:26:24.459Z,23.74
2023-04-29T10:27:25.325Z,23.83
2023-04-29T10:28:24.207Z,23.86
2023-04-29T10:29:24.118Z,23.84
2023-04-29T10:30:23.939Z,23.25
2023-04-29T10:31:23.807Z,23.60
2023-04-29T10:32:23.728Z,23.45
2023-04-29T10:33:23.606Z,23.52
2023-04-29T10:34:23.476Z,23.41
2023-04-29T10:35:23.851Z,23.33
2023-04-29T10:36:23.244Z,23.42
2023-04-29T10:37:23.123Z,23.46
2023-04-29T10:38:23.020Z,23.42
2023-04-29T10:39:22.953Z,23.31
2023-04-29T10:40:22.931Z,23.14
2023-04-29T10:41:22.858Z,22.98
2023-04-29T10:42:22.778Z,22.93
2023-04-29T10:43:22.691Z,22.86
2023-04-29T10:44:22.591Z,22.82
2023-04-29T10:45:22.565Z,22.31
2023-04-29T10:46:22.532Z,22.08
2023-04-29T10:47:22.499Z,21.84
2023-04-29T10:48:22.423Z,21.54
2023-04-29T10:49:24.821Z,21.29
2023-04-29T10:50:22.349Z,21.19
2023-04-29T10:51:22.287Z,21.26
2023-04-29T10:52:22.201Z,21.25
2023-04-29T10:53:22.180Z,21.18
2023-04-29T10:54:22.067Z,21.12
2023-04-29T10:55:22.036Z,21.12
2023-04-29T10:56:21.929Z,21.12
2023-04-29T10:57:21.855Z,21.28
2023-04-29T10:58:21.753Z,21.32
2023-04-29T10:59:21.671Z,21.45
2023-04-29T11:00:21.582Z,21.41
2023-04-29T11:01:21.528Z,21.50
2023-04-29T11:02:21.427Z,21.57
2023-04-29T11:03:21.397Z,21.61
2023-04-29T11:04:21.195Z,21.67
2023-04-29T11:05:21.136Z,21.64
2023-04-29T11:06:21.047Z,21.69
2023-04-29T11:07:20.913Z,21.73
2023-04-29T11:08:20.864Z,21.66
2023-04-29T11:09:21.561Z,21.73
2023-04-29T11:10:20.681Z,21.70
2023-04-29T11:11:20.632Z,21.56
2023-04-29T11:12:21.052Z,21.38
2023-04-29T11:13:20.472Z,21.29
2023-04-29T11:14:20.427Z,21.25
2023-04-29T11:15:20.319Z,21.33
2023-04-29T11:16:20.367Z,21.31
2023-04-29T11:17:20.163Z,21.33
2023-04-29T11:18:20.089Z,21.38
2023-04-29T11:19:19.996Z,21.42
2023-04-29T11:20:19.906Z,21.41
2023-04-29T11:21:19.816Z,21.52
2023-04-29T11:22:19.737Z,21.48
2023-04-29T11:23:19.675Z,21.48
2023-04-29T11:24:19.574Z,21.61
2023-04-29T11:25:19.477Z,21.52
2023-04-29T11:26:19.384Z,21.67
2023-04-29T11:27:19.312Z,21.66
2023-04-29T11:28:19.224Z,21.77
2023-04-29T11:29:19.110Z,21.64
2023-04-29T11:30:19.014Z,21.70
2023-04-29T11:31:19.167Z,21.74
2023-04-29T11:32:18.952Z,21.84
2023-04-29T11:33:18.952Z,21.87
2023-04-29T11:34:18.649Z,21.94
2023-04-29T11:35:18.569Z,21.98
2023-04-29T11:36:18.466Z,22.11
2023-04-29T11:37:18.355Z,22.23
2023-04-29T11:38:18.299Z,22.28
2023-04-29T11:39:18.198Z,22.11
2023-04-29T11:40:18.129Z,21.88
2023-04-29T11:41:18.070Z,21.72
2023-04-29T11:42:17.986Z,21.57
2023-04-29T11:43:17.962Z,21.32
2023-04-29T11:44:17.861Z,20.71
2023-04-29T11:45:17.775Z,20.40
2023-04-29T11:46:17.840Z,20.50
2023-04-29T11:47:17.830Z,20.24
2023-04-29T11:48:17.704Z,20.22
2023-04-29T11:49:17.700Z,20.16
2023-04-29T11:50:17.630Z,20.07
2023-04-29T11:51:17.628Z,20.12
2023-04-29T11:52:17.508Z,20.22
2023-04-29T11:53:17.458Z,20.26
2023-04-29T11:54:17.416Z,20.04
2023-04-29T11:55:17.401Z,19.37
2023-04-29T11:56:17.345Z,19.60
2023-04-29T11:57:17.292Z,19.39
2023-04-29T11:58:17.226Z,19.85
2023-04-29T11:59:17.180Z,20.12
2023-04-29T12:00:17.073Z,20.01
2023-04-29T12:01:17.044Z,20.22
2023-04-29T12:02:17.038Z,20.37
2023-04-29T12:03:17.374Z,20.46
2023-04-29T12:04:17.303Z,20.28
2023-04-29T12:05:17.718Z,20.05
2023-04-29T12:06:16.822Z,20.02
2023-04-29T12:07:16.773Z,20.32
2023-04-29T12:08:16.722Z,20.46
2023-04-29T12:09:16.740Z,20.67
2023-04-29T12:10:16.651Z,20.46
2023-04-29T12:11:16.615Z,20.81
2023-04-29T12:12:16.573Z,21.02
2023-04-29T12:13:17.389Z,20.93
2023-04-29T12:14:16.379Z,21.19
2023-04-29T12:15:16.302Z,21.32
2023-04-29T12:16:16.250Z,21.31
2023-04-29T12:17:16.212Z,21.45
2023-04-29T12:18:16.188Z,21.64
2023-04-29T12:19:16.034Z,21.74
2023-04-29T12:20:15.970Z,21.61
2023-04-29T12:21:15.870Z,21.57
2023-04-29T12:22:15.762Z,21.74
2023-04-29T12:23:15.701Z,21.91
2023-04-29T12:24:15.534Z,21.98
2023-04-29T12:25:15.442Z,22.09
2023-04-29T12:26:15.348Z,22.08
2023-04-29T12:27:15.261Z,22.27
2023-04-29T12:28:15.217Z,22.35
2023-04-29T12:29:15.141Z,22.22
2023-04-29T12:30:15.067Z,22.22
2023-04-29T12:31:15.037Z,22.43
2023-04-29T12:32:14.923Z,22.60
2023-04-29T12:33:14.919Z,22.67
2023-04-29T12:34:14.795Z,22.82
2023-04-29T12:35:14.692Z,22.94
2023-04-29T12:36:14.613Z,23.00
2023-04-29T12:37:14.541Z,23.10
2023-04-29T12:38:14.390Z,22.98
2023-04-29T12:39:14.279Z,22.55
2023-04-29T12:40:14.201Z,22.87
2023-04-29T12:41:14.144Z,22.53
2023-04-29T12:42:14.101Z,21.84
2023-04-29T12:43:14.003Z,21.36
2023-04-29T12:44:13.944Z,21.73
2023-04-29T12:45:13.802Z,21.57
2023-04-29T12:46:13.758Z,21.97
2023-04-29T12:47:13.854Z,21.86
2023-04-29T12:48:25.326Z,21.91
2023-04-29T12:49:13.475Z,21.74
2023-04-29T12:50:13.418Z,21.84
2023-04-29T12:51:13.283Z,21.87
2023-04-29T12:52:13.120Z,21.64
2023-04-29T12:53:13.658Z,21.83
2023-04-29T12:54:12.903Z,21.36
2023-04-29T12:55:12.782Z,21.41
2023-04-29T12:56:12.659Z,21.73
2023-04-29T12:57:12.604Z,21.72